Latest Weather Observations for Cape Bruny AWS

IDT60901

Issued at 2:31 pm EST Sunday 19 April 2015 (issued every 10 minutes, with the page automatically refreshed every 10 minutes)

About weather observations | Map of Hobart area stations | Latest observations for Hobart area | Other Formats
Station Details ID: 094198 Name: CAPE BRUNY (CAPE BRUNY) Lat: -43.49 Lon: 147.14 Height: 59.7 m
Data from the previous 72 hours. | See also: Recent months at Cape Bruny AWS
Date/Time
EST
Tmp

°C
App
Tmp
°C
Dew
Point
°C
Rel
Hum
%
Delta-T

°C
Wind Press
QNH
hPa
Press
MSL
hPa
Rain
since
9 am
mm
Dir
 
Spd
km/h
Gust
km/h
Spd
kts
Gust
kts
19/02:30pm 11.2 3.7 4.2 62 3.1 W 33 41 18 22 1027.4 1027.4 0.0
19/02:00pm 9.6 -0.1 2.9 63 2.9 W 43 61 23 33 1026.8 1026.8 0.0
19/01:53pm 11.1 3.2 2.4 55 3.7 WSW 33 61 18 33 1026.9 1026.9 0.0
19/01:30pm 12.2 5.1 1.2 47 4.7 WSW 28 41 15 22 1026.7 1026.7 0.0
19/01:00pm 11.6 3.9 0.1 45 4.7 WSW 30 43 16 23 1026.6 1026.6 0.0
19/12:30pm 11.2 3.6 0.3 47 4.5 WSW 30 48 16 26 1026.4 1026.4 0.0
19/12:00pm 11.1 2.9 -1.0 43 4.8 WSW 32 46 17 25 1026.3 1026.3 0.0
19/11:30am 11.2 3.9 0.3 47 4.5 SW 28 39 15 21 1026.0 1026.0 0.0
19/11:00am 11.3 3.3 1.8 52 4.0 SW 33 44 18 24 1025.5 1025.5 0.0
19/10:30am 11.1 4.7 3.2 58 3.4 SW 26 44 14 24 1025.0 1025.0 0.0
19/10:01am 9.7 2.6 1.1 55 3.5 SW 28 46 15 25 1024.7 1024.7 0.0
19/10:00am 9.7 2.2 1.4 56 3.4 SW 30 46 16 25 1024.6 1024.6 0.0
19/09:30am 8.1 0.0 3.0 70 2.2 W 35 46 19 25 1024.2 1024.2 0.0
19/09:12am 7.6 -2.3 2.5 70 2.1 WSW 44 63 24 34 1023.6 1023.6 0.0
19/09:03am 9.2 2.1 1.1 57 3.3 SW 28 50 15 27 1023.8 1023.8 0.0
19/09:00am 9.9 3.3 2.3 59 3.2 SW 26 43 14 23 1023.7 1023.7 7.0
19/08:42am 9.4 2.5 2.5 62 2.9 SW 28 46 15 25 1023.3 1023.3 7.0
19/08:30am 9.1 2.4 3.5 68 2.4 SW 28 43 15 23 1023.0 1023.0 7.0
19/08:18am 9.2 0.7 1.1 57 3.3 SW 35 54 19 29 1022.7 1022.7 7.0
19/08:00am 8.4 -0.4 1.6 62 2.8 WSW 37 54 20 29 1022.2 1022.2 7.0
19/07:46am 8.3 -0.3 2.5 67 2.4 SW 37 56 20 30 1021.8 1021.8 7.0
19/07:30am 8.2 0.7 3.5 72 2.0 SW 32 48 17 26 1021.5 1021.5 7.0
19/07:00am 6.5 -3.5 2.2 74 1.8 SW 44 69 24 37 1020.8 1020.8 6.8
19/06:53am 8.2 -1.6 2.2 66 2.5 SW 43 69 23 37 1020.5 1020.5 6.4
19/06:32am 9.3 1.5 1.9 60 3.1 SW 32 50 17 27 1019.8 1019.8 6.4
19/06:30am 9.3 1.3 1.9 60 3.1 SW 33 50 18 27 1019.7 1019.7 6.4
19/06:07am 9.0 -0.1 -0.6 51 3.8 SW 37 56 20 30 1019.2 1019.2 6.4
19/06:00am 8.8 0.1 -0.5 52 3.6 SW 35 52 19 28 1018.7 1018.8 6.4
19/05:38am 8.9 -1.1 0.9 57 3.3 SW 43 61 23 33 1018.2 1018.2 6.4
19/05:30am 9.0 -1.2 1.0 57 3.3 SW 44 61 24 33 1018.0 1018.0 6.4
19/05:00am 8.4 -0.6 2.6 67 2.4 SW 39 65 21 35 1017.2 1017.2 6.4
19/04:30am 9.3 -0.2 1.5 58 3.2 SW 41 59 22 32 1016.3 1016.3 6.4
19/04:04am 8.9 0.4 2.9 66 2.6 SW 37 56 20 30 1015.6 1015.6 6.4
19/04:00am 8.8 -0.6 2.4 64 2.7 SW 41 56 22 30 1015.5 1015.5 6.4
19/03:30am 9.1 -1.7 3.9 70 2.3 SW 50 70 27 38 1014.7 1014.7 6.4
19/03:13am 9.0 -0.1 4.2 72 2.1 SW 41 69 22 37 1014.2 1014.2 6.2
19/03:08am 8.6 2.3 3.6 71 2.2 SW 26 63 14 34 1014.2 1014.2 6.2
19/03:00am 9.0 4.5 6.3 83 1.2 SW 19 33 10 18 1014.0 1014.0 6.2
19/02:36am 8.3 2.0 5.6 83 1.2 SSW 28 48 15 26 1013.7 1013.7 6.0
19/02:30am 8.1 1.7 5.2 82 1.3 SW 28 44 15 24 1013.8 1013.8 6.0
19/02:00am 8.5 -1.0 5.1 79 1.5 SW 44 74 24 40 1013.2 1013.2 5.2
19/01:30am 8.7 1.6 5.6 81 1.4 SW 32 52 17 28 1012.6 1012.6 5.2
19/01:00am 8.7 -0.3 6.2 84 1.2 SW 43 65 23 35 1012.2 1012.2 4.4
19/12:52am 8.5 0.1 5.4 81 1.4 SW 39 57 21 31 1011.8 1011.8 4.2
19/12:44am 8.3 0.7 5.9 85 1.1 WSW 35 54 19 29 1011.7 1011.7 4.2
19/12:30am 8.6 1.7 6.4 86 1.0 W 32 56 17 30 1011.0 1011.0 3.2
19/12:24am 8.6 1.6 6.1 84 1.1 W 32 56 17 30 1010.9 1010.9 2.8
19/12:00am 9.2 3.1 6.6 84 1.2 WSW 28 39 15 21 1010.8 1010.8 2.0
 
Date/Time
EST
Tmp

°C
App
Tmp
°C
Dew
Point
°C
Rel
Hum
%
Delta-T

°C
Wind Press
QNH
hPa
Press
MSL
hPa
Rain
since
9 am
mm
Dir
 
Spd
km/h
Gust
km/h
Spd
kts
Gust
kts
18/11:30pm 9.1 1.0 6.9 86 1.0 WSW 39 50 21 27 1010.5 1010.5 2.0
18/11:00pm 8.6 -1.8 6.2 85 1.1 W 50 67 27 36 1009.8 1009.8 1.6
18/10:51pm 9.2 -0.4 6.3 82 1.3 WSW 46 69 25 37 1009.5 1009.5 1.0
18/10:47pm 9.8 1.9 6.2 78 1.7 WSW 37 56 20 30 1009.5 1009.5 0.6
18/10:40pm 10.8 5.3 6.0 72 2.2 W 24 44 13 24 1009.4 1009.4 0.6
18/10:30pm 10.5 5.8 5.1 69 2.5 W 19 26 10 14 1009.2 1009.2 0.6
18/10:00pm 10.5 4.8 5.1 69 2.5 WNW 24 35 13 19 1008.4 1008.4 0.6
18/09:30pm 10.6 4.1 4.7 67 2.7 WNW 28 39 15 21 1008.2 1008.2 0.6
18/09:00pm 10.5 4.0 4.9 68 2.5 NW 28 41 15 22 1007.6 1007.6 0.6
18/08:30pm 10.6 4.9 4.7 67 2.7 WNW 24 35 13 19 1007.4 1007.4 0.6
18/08:00pm 10.7 4.3 5.0 68 2.6 WNW 28 35 15 19 1006.8 1006.8 0.6
18/07:30pm 10.9 3.7 5.7 70 2.4 WNW 33 43 18 23 1006.1 1006.1 0.6
18/07:00pm 11.0 2.5 5.3 68 2.6 WNW 39 50 21 27 1006.0 1006.0 0.6
18/06:30pm 10.9 2.7 5.0 67 2.7 WNW 37 52 20 28 1005.2 1005.2 0.6
18/06:18pm 10.9 3.6 4.6 65 2.8 NW 32 56 17 30 1005.0 1005.0 0.6
18/06:00pm 10.6 2.5 5.2 69 2.5 WNW 37 50 20 27 1004.5 1004.4 0.6
18/05:30pm 10.8 1.4 5.3 69 2.5 WNW 44 59 24 32 1004.4 1004.3 0.6
18/05:10pm 10.9 2.6 5.9 71 2.3 WNW 39 57 21 31 1004.4 1004.3 0.6
18/05:00pm 10.8 2.8 5.6 70 2.4 WNW 37 48 20 26 1004.4 1004.3 0.6
18/04:30pm 11.2 3.7 6.5 73 2.2 WNW 35 46 19 25 1004.4 1004.3 0.6
18/04:00pm 11.6 4.9 7.5 76 2.0 W 32 37 17 20 1003.9 1003.8 0.6
18/03:30pm 11.0 2.0 7.3 78 1.8 WSW 44 56 24 30 1003.3 1003.2 0.6
18/03:00pm 10.7 2.4 7.9 83 1.4 WSW 41 54 22 29 1002.5 1002.4 0.6
18/02:32pm 10.3 1.1 7.9 85 1.2 WSW 46 65 25 35 1002.4 1002.3 0.6
18/02:30pm 10.5 1.8 8.4 87 1.0 WSW 44 56 24 30 1002.6 1002.5 0.6
18/02:00pm 10.5 1.4 8.6 88 0.9 WSW 46 57 25 31 1002.7 1002.6 0.2
18/01:31pm 11.4 1.5 8.3 81 1.5 WSW 50 69 27 37 1002.2 1002.1 0.0
18/01:30pm 11.4 1.1 8.3 81 1.5 WSW 52 69 28 37 1002.2 1002.1 0.0
18/01:12pm 13.0 4.7 7.7 70 2.6 W 41 63 22 34 1001.6 1001.6 0.0
18/01:09pm 14.5 6.4 7.1 61 3.6 WNW 39 59 21 32 1001.7 1001.7 0.0
18/01:01pm 16.6 10.7 7.5 55 4.6 NW 28 50 15 27 1001.1 1001.1 0.0
18/01:00pm 16.5 11.0 7.7 56 4.5 NW 26 50 14 27 1001.1 1001.1 0.0
18/12:30pm 16.2 11.6 6.6 53 4.7 NNW 20 32 11 17 1001.1 1001.1 0.0
18/12:00pm 16.7 10.2 6.5 51 5.0 NW 30 43 16 23 1001.9 1001.8 0.0
18/11:44am 16.6 9.6 6.7 52 4.9 NW 33 52 18 28 1001.9 1001.8 0.0
18/11:30am 16.3 9.4 6.4 52 4.8 NW 32 46 17 25 1002.1 1002.0 0.0
18/11:00am 16.9 10.9 7.0 52 5.0 NNW 28 46 15 25 1002.2 1002.1 0.0
18/10:32am 18.0 11.5 6.5 47 5.7 NNW 30 50 16 27 1002.1 1002.0 0.0
18/10:30am 17.9 11.6 7.3 50 5.3 NNW 30 43 16 23 1002.1 1002.0 0.0
18/10:00am 16.5 9.5 6.1 50 5.1 NNW 32 46 17 25 1002.5 1002.4 0.0
18/09:30am 16.0 9.4 6.2 52 4.8 NW 30 41 16 22 1003.1 1003.0 0.0
18/09:00am 15.3 9.5 6.3 55 4.4 NW 26 43 14 23 1003.8 1003.7 0.0
18/08:30am 15.0 11.6 5.8 54 4.4 NNW 13 26 7 14 1004.2 1004.1 0.0
18/08:00am 13.6 10.2 6.0 60 3.6 NNE 13 19 7 10 1004.6 1004.5 0.0
18/07:30am 12.6 9.3 6.2 65 3.0 NNE 13 17 7 9 1005.0 1005.0 0.0
18/07:00am 12.0 7.8 5.9 66 2.9 N 17 26 9 14 1004.8 1004.8 0.0
18/06:30am 12.6 7.5 4.3 57 3.8 NNW 20 28 11 15 1004.6 1004.5 0.0
18/06:00am 13.3 6.9 5.0 57 3.9 NW 28 39 15 21 1004.7 1004.6 0.0
18/05:30am 13.6 6.3 4.7 55 4.1 NW 32 39 17 21 1004.9 1004.9 0.0
18/05:00am 12.5 7.8 5.0 60 3.5 NNW 19 26 10 14 1004.8 1004.8 0.0
18/04:30am 12.6 8.4 5.5 62 3.3 NNW 17 24 9 13 1004.7 1004.6 0.0
18/04:00am 12.6 8.9 6.4 66 3.0 N 15 20 8 11 1004.8 1004.8 0.0
18/03:30am 12.8 8.8 6.6 66 3.0 N 17 24 9 13 1005.1 1005.1 0.0
18/03:00am 12.6 9.3 6.6 67 2.9 N 13 20 7 11 1005.5 1005.5 0.0
18/02:30am 12.7 9.2 7.0 68 2.8 N 15 20 8 11 1005.9 1005.9 0.0
18/02:00am 12.7 8.3 7.6 71 2.5 N 20 26 11 14 1006.7 1006.7 0.0
18/01:30am 12.6 9.9 7.5 71 2.5 NNE 11 17 6 9 1007.4 1007.4 0.0
18/01:00am 12.6 9.2 7.5 71 2.5 N 15 20 8 11 1008.2 1008.2 0.0
18/12:30am 12.5 9.0 7.2 70 2.6 N 15 20 8 11 1008.5 1008.5 0.0
18/12:00am 12.5 9.3 7.0 69 2.7 N 13 22 7 12 1009.0 1009.0 0.0
 
Date/Time
EST
Tmp

°C
App
Tmp
°C
Dew
Point
°C
Rel
Hum
%
Delta-T

°C
Wind Press
QNH
hPa
Press
MSL
hPa
Rain
since
9 am
mm
Dir
 
Spd
km/h
Gust
km/h
Spd
kts
Gust
kts
17/11:30pm 12.7 8.8 7.2 69 2.7 N 17 28 9 15 1009.7 1009.7 0.0
17/11:00pm 12.6 9.0 6.9 68 2.8 N 15 20 8 11 1009.7 1009.7 0.0
17/10:30pm 12.7 8.3 6.7 67 2.9 N 19 24 10 13 1010.1 1010.1 0.0
17/10:00pm 12.4 8.4 6.5 67 2.8 NNW 17 22 9 12 1010.8 1010.8 0.0
17/09:30pm 12.2 9.2 6.0 66 2.9 NNW 11 15 6 8 1011.2 1011.2 0.0
17/09:00pm 12.0 9.4 5.9 66 2.9 N 9 11 5 6 1011.2 1011.2 0.0
17/08:30pm 13.4 9.0 4.8 56 4.0 NW 17 22 9 12 1011.5 1011.5 0.0
17/08:00pm 13.7 8.4 5.1 56 4.0 NW 22 30 12 16 1012.0 1012.0 0.0
17/07:30pm 13.9 8.3 5.3 56 4.0 NW 24 32 13 17 1012.2 1012.2 0.0
17/07:00pm 13.5 8.9 5.7 59 3.7 NW 19 24 10 13 1012.3 1012.3 0.0
17/06:30pm 12.5 9.4 5.4 62 3.3 NW 11 13 6 7 1012.4 1012.4 0.0
17/06:00pm 14.4 9.5 5.0 53 4.4 NW 20 30 11 16 1012.5 1012.5 0.0
17/05:30pm 14.7 8.4 5.5 54 4.4 NW 28 37 15 20 1012.5 1012.5 0.0
17/05:00pm 15.4 8.3 5.3 51 4.8 NW 32 43 17 23 1012.4 1012.4 0.0
17/04:30pm 15.8 10.4 6.3 53 4.6 NW 24 33 13 18 1012.9 1012.9 0.0
17/04:00pm 16.8 11.8 6.3 50 5.2 NW 22 28 12 15 1012.9 1012.9 0.0
17/03:30pm 17.8 13.2 6.7 48 5.5 NW 20 26 11 14 1013.5 1013.5 0.0
17/03:00pm 17.9 12.5 6.4 47 5.7 NW 24 33 13 18 1013.6 1013.6 0.0
17/02:30pm 18.0 12.6 6.2 46 5.8 WNW 24 33 13 18 1013.8 1013.8 0.0
17/02:00pm 18.5 13.2 7.0 47 5.8 NW 24 30 13 16 1014.2 1014.2 0.0
17/01:30pm 18.3 12.9 6.2 45 6.0 NW 24 33 13 18 1014.7 1014.7 0.0
17/01:00pm 18.3 13.8 6.8 47 5.8 NW 20 32 11 17 1015.0 1015.0 0.0
17/12:30pm 17.8 13.6 8.1 53 5.0 NNW 20 33 11 18 1015.4 1015.4 0.0
17/12:00pm 16.8 11.6 7.2 53 4.8 NNW 24 39 13 21 1016.0 1016.0 0.0
17/11:30am 16.6 12.3 7.8 56 4.4 N 20 32 11 17 1016.6 1016.6 0.0
17/11:00am 16.6 12.8 7.5 55 4.6 N 17 26 9 14 1017.3 1017.3 0.0
17/10:30am 15.7 12.0 6.2 53 4.6 NNW 15 24 8 13 1017.6 1017.6 0.0
17/10:00am 14.9 9.8 6.0 55 4.3 NW 22 35 12 19 1017.8 1017.8 0.0
17/09:30am 14.4 9.8 6.7 60 3.7 NW 20 39 11 21 1018.4 1018.4 0.0
17/09:00am 13.6 9.1 6.2 61 3.5 NW 19 26 10 14 1018.7 1018.8 1.6
17/08:30am 13.4 10.7 7.2 66 3.0 N 11 17 6 9 1019.2 1019.2 1.6
17/08:00am 12.3 9.7 6.1 66 2.9 N 9 13 5 7 1019.3 1019.3 1.6
17/07:30am 10.8 7.8 6.0 72 2.2 NNE 11 15 6 8 1019.4 1019.4 1.6
17/07:00am 10.1 7.2 4.7 69 2.4 N 9 17 5 9 1019.2 1019.2 1.6
17/06:30am 10.5 6.6 5.3 70 2.4 NNW 15 24 8 13 1018.9 1019.0 1.6
17/06:00am 9.4 5.7 4.2 70 2.3 N 13 17 7 9 1018.8 1018.9 1.6
17/05:30am 10.3 6.3 4.7 68 2.5 NNW 15 20 8 11 1018.7 1018.8 1.6
17/05:00am 10.6 7.3 4.7 67 2.7 WNW 11 19 6 10 1018.7 1018.8 1.6
17/04:30am 11.0 3.7 5.5 69 2.5 WNW 33 41 18 22 1018.3 1018.3 1.6
17/04:00am 11.0 5.0 5.1 67 2.7 WNW 26 35 14 19 1018.4 1018.4 1.6
17/03:30am 10.7 4.9 4.2 64 2.9 WNW 24 32 13 17 1018.4 1018.4 1.6
17/03:00am 11.1 4.7 5.2 67 2.7 WNW 28 39 15 21 1018.7 1018.8 1.6
17/02:30am 10.9 4.5 5.4 69 2.5 WNW 28 35 15 19 1019.0 1019.1 1.6
17/02:00am 11.0 6.5 6.0 71 2.3 NW 19 26 10 14 1019.5 1019.5 1.6
17/01:30am 11.3 5.6 6.8 74 2.1 W 26 37 14 20 1019.6 1019.6 1.6
17/01:00am 11.3 5.0 7.2 76 2.0 W 30 41 16 22 1019.4 1019.4 1.6
17/12:30am 11.2 6.2 8.1 81 1.5 W 24 37 13 20 1019.5 1019.5 1.6
17/12:00am 11.1 8.7 8.5 84 1.3 WSW 11 19 6 10 1019.8 1019.8 1.6
 
Date/Time
EST
Tmp

°C
App
Tmp
°C
Dew
Point
°C
Rel
Hum
%
Delta-T

°C
Wind Press
QNH
hPa
Press
MSL
hPa
Rain
since
9 am
mm
Dir
 
Spd
km/h
Gust
km/h
Spd
kts
Gust
kts
16/11:30pm 11.2 9.8 8.8 85 1.2 ESE 6 9 3 5 1019.8 1019.8 1.6
16/11:00pm 11.3 9.7 8.7 84 1.3 ESE 7 11 4 6 1019.8 1019.8 1.6
16/10:30pm 11.3 7.6 8.0 80 1.6 NW 17 20 9 11 1019.8 1019.8 1.6
16/10:00pm 10.5 6.5 8.4 87 1.0 N 19 35 10 19 1019.7 1019.7 1.6
16/09:30pm 10.7 8.8 9.1 90 0.8 N 9 13 5 7 1020.2 1020.2 1.4
16/09:00pm 10.7 8.4 9.0 89 0.8 N 11 13 6 7 1019.8 1019.8 1.4
16/08:30pm 10.6 9.0 8.9 89 0.8 NNE 7 9 4 5 1019.6 1019.6 1.4
16/08:00pm 10.8 10.6 9.1 89 0.8 CALM 0 6 0 3 1019.5 1019.5 1.4
16/07:30pm 10.7 9.3 9.0 89 0.8 NNW 6 13 3 7 1019.5 1019.5 1.0
16/07:00pm 11.1 9.2 9.0 87 1.0 SW 9 11 5 6 1019.2 1019.2 0.8
16/06:30pm 11.6 8.5 8.8 83 1.4 WSW 15 20 8 11 1018.9 1019.0 0.2
16/06:00pm 12.6 8.5 7.7 72 2.4 NW 19 28 10 15 1018.4 1018.4 0.0
16/05:30pm 12.5 9.5 7.6 72 2.4 NW 13 26 7 14 1018.1 1018.1 0.0
16/05:00pm 13.3 7.3 6.9 65 3.1 NW 28 43 15 23 1017.7 1017.7 0.0
16/04:30pm 13.4 7.4 7.0 65 3.1 NW 28 37 15 20 1017.7 1017.7 0.0
16/04:05pm 13.5 6.6 7.1 65 3.1 NW 33 52 18 28 1017.8 1017.8 0.0
16/04:00pm 13.7 6.4 7.0 64 3.3 NW 35 52 19 28 1017.8 1017.8 0.0
16/03:30pm 14.5 7.6 7.3 62 3.5 NW 33 44 18 24 1017.9 1017.9 0.0
16/03:00pm 13.1 6.1 6.9 66 3.0 WNW 33 46 18 25 1018.1 1018.1 0.0
16/02:52pm 13.3 5.6 6.9 65 3.1 WNW 37 56 20 30 1018.1 1018.1 0.0

Latest Capital City Observations: Canberra | Sydney | Melbourne | Brisbane | Adelaide | Perth | Hobart | Darwin

Other Formats:

Comma delimited format used in spreadsheet applications
http://www.bom.gov.au/fwo/IDT60901/IDT60901.95967.axf

JavaScript Object Notation format (JSON) in row-major order
http://www.bom.gov.au/fwo/IDT60901/IDT60901.95967.json